IBE07RZ LEMD-EGLL
Flight info
| Callsign | IBE07RZ |
|---|---|
| Flight time | N/A |
| Altitude | 36000 |
| Route | SIE N865 DELOG DCT DEGEX DCT JSY DCT REVTU UP87 ROXOG |
| Aircraft | A359/H-SDE2E3GHIJ1J3J4J5LM1ORWXY/LB1D1 |
Departure
| Time | 2026-04-30 10:44 |
|---|---|
| Airport | Adolfo Suárez Madrid–Barajas Airport (LEMD) |
Arrival
| Time | N/A |
|---|---|
| Airport | London Heathrow Airport (EGLL) |
| Time | Latitude | Longitude | Altitude | Speed | Heading |
|---|---|---|---|---|---|
| 2026-04-30 10:15 | 40.49358 | -3.56877 | 1950 ft | 0 kts | 89° |
| 2026-04-30 10:38 | 40.49358 | -3.56871 | 1987 ft | 4 kts | 89° |
| 2026-04-30 10:38 | 40.49358 | -3.56896 | 1988 ft | 4 kts | 91° |
| 2026-04-30 10:38 | 40.49359 | -3.56931 | 1987 ft | 4 kts | 97° |
| 2026-04-30 10:38 | 40.49364 | -3.56965 | 1987 ft | 4 kts | 109° |
| 2026-04-30 10:39 | 40.49374 | -3.56994 | 1987 ft | 4 kts | 134° |
| 2026-04-30 10:39 | 40.49388 | -3.57008 | 1986 ft | 3 kts | 177° |
| 2026-04-30 10:39 | 40.49377 | -3.57008 | 1986 ft | 4 kts | 180° |
| 2026-04-30 10:39 | 40.49364 | -3.57008 | 1987 ft | 0 kts | 180° |
| 2026-04-30 10:41 | 40.49334 | -3.57008 | 1988 ft | 11 kts | 184° |
| 2026-04-30 10:41 | 40.49292 | -3.57054 | 1989 ft | 7 kts | 244° |
| 2026-04-30 10:41 | 40.49280 | -3.57188 | 1989 ft | 15 kts | 254° |
| 2026-04-30 10:42 | 40.49228 | -3.57236 | 1987 ft | 14 kts | 194° |
| 2026-04-30 10:42 | 40.49177 | -3.57308 | 1989 ft | 15 kts | 272° |
| 2026-04-30 10:42 | 40.49224 | -3.57465 | 1989 ft | 10 kts | 335° |
| 2026-04-30 10:42 | 40.49317 | -3.57467 | 1990 ft | 16 kts | 0° |
| 2026-04-30 10:43 | 40.49438 | -3.57465 | 1989 ft | 18 kts | 0° |
| 2026-04-30 10:43 | 40.49655 | -3.57467 | 1987 ft | 66 kts | 359° |
| 2026-04-30 10:43 | 40.50408 | -3.57468 | 1987 ft | 141 kts | 360° |
| 2026-04-30 10:43 | 40.51142 | -3.57478 | 1992 ft | 175 kts | 359° |
| 2026-04-30 10:44 | 40.52733 | -3.57520 | 3002 ft | 167 kts | 359° |
| 2026-04-30 10:44 | 40.53949 | -3.57533 | 3488 ft | 185 kts | 359° |
| 2026-04-30 10:44 | 40.55332 | -3.57565 | 3693 ft | 213 kts | 356° |
| 2026-04-30 10:44 | 40.56320 | -3.57969 | 3673 ft | 236 kts | 326° |
| 2026-04-30 10:45 | 40.57520 | -3.59531 | 4111 ft | 249 kts | 305° |
| 2026-04-30 10:45 | 40.59002 | -3.61773 | 5457 ft | 239 kts | 310° |
| 2026-04-30 10:45 | 40.60169 | -3.63312 | 6465 ft | 237 kts | 312° |
| 2026-04-30 10:45 | 40.60970 | -3.64296 | 7027 ft | 237 kts | 313° |
| 2026-04-30 10:46 | 40.62616 | -3.66214 | 8161 ft | 239 kts | 315° |
| 2026-04-30 10:46 | 40.64030 | -3.67426 | 8926 ft | 250 kts | 335° |
| 2026-04-30 10:46 | 40.65809 | -3.67752 | 9482 ft | 272 kts | 0° |
| 2026-04-30 10:46 | 40.67126 | -3.67610 | 9721 ft | 290 kts | 5° |
| 2026-04-30 10:47 | 40.69159 | -3.67265 | 10292 ft | 305 kts | 6° |
| 2026-04-30 10:47 | 40.71352 | -3.66896 | 10700 ft | 327 kts | 5° |
| 2026-04-30 10:47 | 40.73699 | -3.66529 | 11042 ft | 350 kts | 5° |
| 2026-04-30 10:47 | 40.76177 | -3.66156 | 11558 ft | 364 kts | 5° |
| 2026-04-30 10:48 | 40.78687 | -3.65784 | 12296 ft | 370 kts | 5° |
| 2026-04-30 10:48 | 40.81274 | -3.65405 | 13099 ft | 375 kts | 4° |
| 2026-04-30 10:48 | 40.83887 | -3.65022 | 13905 ft | 379 kts | 4° |
| 2026-04-30 10:48 | 40.86537 | -3.64636 | 14637 ft | 384 kts | 4° |
| 2026-04-30 10:49 | 40.89216 | -3.64248 | 15357 ft | 388 kts | 4° |
| 2026-04-30 10:49 | 40.90456 | -3.64068 | 15678 ft | 390 kts | 4° |